sensor_id;sensor_type;location;lat;lon;timestamp;P1;durP1;ratioP1;P2;durP2;ratioP2
69203;SDS011;56317;27.658;85.326;2022-07-04T00:00:29;28.58;;;12.02;;
69203;SDS011;56317;27.658;85.326;2022-07-04T00:02:56;24.98;;;11.88;;
69203;SDS011;56317;27.658;85.326;2022-07-04T00:05:25;19.45;;;12.60;;
69203;SDS011;56317;27.658;85.326;2022-07-04T00:07:53;22.48;;;13.50;;
69203;SDS011;56317;27.658;85.326;2022-07-04T00:10:20;19.10;;;12.57;;
69203;SDS011;56317;27.658;85.326;2022-07-04T00:12:48;24.90;;;14.30;;
69203;SDS011;56317;27.658;85.326;2022-07-04T00:15:16;22.60;;;13.55;;
69203;SDS011;56317;27.658;85.326;2022-07-04T00:17:43;22.45;;;15.07;;
69203;SDS011;56317;27.658;85.326;2022-07-04T00:20:11;22.33;;;14.75;;
69203;SDS011;56317;27.658;85.326;2022-07-04T00:22:38;27.52;;;15.07;;
69203;SDS011;56317;27.658;85.326;2022-07-04T00:25:06;39.20;;;18.33;;
69203;SDS011;56317;27.658;85.326;2022-07-04T00:27:33;36.17;;;17.27;;
69203;SDS011;56317;27.658;85.326;2022-07-04T00:30:01;24.08;;;15.32;;
69203;SDS011;56317;27.658;85.326;2022-07-04T00:32:29;25.20;;;15.35;;
69203;SDS011;56317;27.658;85.326;2022-07-04T00:34:56;25.13;;;16.13;;
69203;SDS011;56317;27.658;85.326;2022-07-04T00:37:24;29.77;;;16.00;;
69203;SDS011;56317;27.658;85.326;2022-07-04T00:39:51;23.65;;;13.85;;
69203;SDS011;56317;27.658;85.326;2022-07-04T00:42:20;22.10;;;14.90;;
69203;SDS011;56317;27.658;85.326;2022-07-04T00:44:48;27.15;;;14.80;;
69203;SDS011;56317;27.658;85.326;2022-07-04T00:47:15;19.70;;;14.10;;
69203;SDS011;56317;27.658;85.326;2022-07-04T00:49:42;32.58;;;16.23;;
69203;SDS011;56317;27.658;85.326;2022-07-04T00:52:09;38.08;;;18.75;;
69203;SDS011;56317;27.658;85.326;2022-07-04T00:54:38;32.72;;;16.17;;
69203;SDS011;56317;27.658;85.326;2022-07-04T00:57:05;28.42;;;13.77;;
69203;SDS011;56317;27.658;85.326;2022-07-04T00:59:33;23.10;;;13.05;;
69203;SDS011;56317;27.658;85.326;2022-07-04T01:02:00;24.15;;;13.90;;
69203;SDS011;56317;27.658;85.326;2022-07-04T01:04:28;25.77;;;13.57;;
69203;SDS011;56317;27.658;85.326;2022-07-04T01:06:55;27.00;;;13.77;;
69203;SDS011;56317;27.658;85.326;2022-07-04T01:09:22;20.60;;;12.50;;
69203;SDS011;56317;27.658;85.326;2022-07-04T01:11:50;25.92;;;16.17;;
69203;SDS011;56317;27.658;85.326;2022-07-04T01:14:17;28.20;;;14.35;;
69203;SDS011;56317;27.658;85.326;2022-07-04T01:16:44;17.15;;;11.32;;
69203;SDS011;56317;27.658;85.326;2022-07-04T01:19:14;26.17;;;12.77;;
69203;SDS011;56317;27.658;85.326;2022-07-04T01:21:42;16.83;;;11.35;;
69203;SDS011;56317;27.658;85.326;2022-07-04T01:24:12;17.08;;;9.75;;
69203;SDS011;56317;27.658;85.326;2022-07-04T01:26:39;13.15;;;9.55;;
69203;SDS011;56317;27.658;85.326;2022-07-04T01:29:07;22.33;;;10.40;;
69203;SDS011;56317;27.658;85.326;2022-07-04T01:31:34;33.20;;;13.02;;
69203;SDS011;56317;27.658;85.326;2022-07-04T01:34:01;23.23;;;13.57;;
69203;SDS011;56317;27.658;85.326;2022-07-04T01:36:28;27.13;;;12.45;;
69203;SDS011;56317;27.658;85.326;2022-07-04T01:38:55;17.80;;;11.65;;
69203;SDS011;56317;27.658;85.326;2022-07-04T01:41:24;19.45;;;12.63;;
69203;SDS011;56317;27.658;85.326;2022-07-04T01:43:51;31.85;;;13.45;;
69203;SDS011;56317;27.658;85.326;2022-07-04T01:46:18;18.90;;;13.02;;
69203;SDS011;56317;27.658;85.326;2022-07-04T01:48:46;21.60;;;13.10;;
69203;SDS011;56317;27.658;85.326;2022-07-04T01:51:13;20.33;;;12.68;;
69203;SDS011;56317;27.658;85.326;2022-07-04T01:53:40;19.00;;;13.05;;
69203;SDS011;56317;27.658;85.326;2022-07-04T01:56:07;21.15;;;12.60;;
69203;SDS011;56317;27.658;85.326;2022-07-04T01:58:34;19.02;;;13.50;;
69203;SDS011;56317;27.658;85.326;2022-07-04T02:01:02;20.00;;;13.23;;
69203;SDS011;56317;27.658;85.326;2022-07-04T02:03:47;26.73;;;14.32;;
69203;SDS011;56317;27.658;85.326;2022-07-04T02:06:14;20.05;;;13.50;;
69203;SDS011;56317;27.658;85.326;2022-07-04T02:08:41;18.88;;;12.15;;
69203;SDS011;56317;27.658;85.326;2022-07-04T02:11:26;26.85;;;16.60;;
69203;SDS011;56317;27.658;85.326;2022-07-04T02:13:53;20.25;;;12.35;;
69203;SDS011;56317;27.658;85.326;2022-07-04T02:16:21;16.08;;;12.13;;
69203;SDS011;56317;27.658;85.326;2022-07-04T02:18:48;25.52;;;13.18;;
69203;SDS011;56317;27.658;85.326;2022-07-04T02:21:15;21.10;;;12.30;;
69203;SDS011;56317;27.658;85.326;2022-07-04T02:23:42;23.35;;;14.32;;
69203;SDS011;56317;27.658;85.326;2022-07-04T02:26:09;20.63;;;12.63;;
69203;SDS011;56317;27.658;85.326;2022-07-04T02:28:36;22.52;;;13.52;;
69203;SDS011;56317;27.658;85.326;2022-07-04T02:31:04;20.83;;;13.00;;
69203;SDS011;56317;27.658;85.326;2022-07-04T02:33:31;24.27;;;12.10;;
69203;SDS011;56317;27.658;85.326;2022-07-04T02:35:58;17.10;;;11.00;;
69203;SDS011;56317;27.658;85.326;2022-07-04T02:38:29;16.80;;;11.10;;
69203;SDS011;56317;27.658;85.326;2022-07-04T02:40:56;20.40;;;12.27;;
69203;SDS011;56317;27.658;85.326;2022-07-04T02:43:23;18.30;;;12.32;;
69203;SDS011;56317;27.658;85.326;2022-07-04T02:45:50;19.33;;;10.88;;
69203;SDS011;56317;27.658;85.326;2022-07-04T02:48:18;20.15;;;11.65;;
69203;SDS011;56317;27.658;85.326;2022-07-04T02:50:45;22.67;;;10.82;;
69203;SDS011;56317;27.658;85.326;2022-07-04T02:53:12;18.15;;;10.20;;
69203;SDS011;56317;27.658;85.326;2022-07-04T02:55:42;19.52;;;11.15;;
69203;SDS011;56317;27.658;85.326;2022-07-04T02:58:10;15.67;;;10.30;;
69203;SDS011;56317;27.658;85.326;2022-07-04T03:00:37;19.85;;;10.75;;
69203;SDS011;56317;27.658;85.326;2022-07-04T03:03:05;17.38;;;11.13;;
69203;SDS011;56317;27.658;85.326;2022-07-04T03:05:32;18.85;;;10.32;;
69203;SDS011;56317;27.658;85.326;2022-07-04T03:07:59;22.48;;;11.27;;
69203;SDS011;56317;27.658;85.326;2022-07-04T03:10:26;18.55;;;12.32;;
69203;SDS011;56317;27.658;85.326;2022-07-04T03:12:54;23.27;;;10.25;;
69203;SDS011;56317;27.658;85.326;2022-07-04T03:15:21;24.00;;;11.60;;
69203;SDS011;56317;27.658;85.326;2022-07-04T03:17:52;17.48;;;11.27;;
69203;SDS011;56317;27.658;85.326;2022-07-04T03:20:19;24.50;;;12.25;;
69203;SDS011;56317;27.658;85.326;2022-07-04T03:22:48;22.92;;;12.52;;
69203;SDS011;56317;27.658;85.326;2022-07-04T03:25:17;23.95;;;14.20;;
69203;SDS011;56317;27.658;85.326;2022-07-04T03:27:44;21.20;;;13.18;;
69203;SDS011;56317;27.658;85.326;2022-07-04T03:30:14;25.65;;;13.93;;
69203;SDS011;56317;27.658;85.326;2022-07-04T03:32:42;20.25;;;13.00;;
69203;SDS011;56317;27.658;85.326;2022-07-04T03:35:09;26.00;;;12.43;;
69203;SDS011;56317;27.658;85.326;2022-07-04T03:37:36;19.48;;;13.45;;
69203;SDS011;56317;27.658;85.326;2022-07-04T03:40:04;26.58;;;13.95;;
69203;SDS011;56317;27.658;85.326;2022-07-04T03:42:35;26.00;;;12.80;;
69203;SDS011;56317;27.658;85.326;2022-07-04T03:45:03;21.20;;;14.30;;
69203;SDS011;56317;27.658;85.326;2022-07-04T03:47:31;23.27;;;14.10;;
69203;SDS011;56317;27.658;85.326;2022-07-04T03:50:08;20.58;;;13.80;;
69203;SDS011;56317;27.658;85.326;2022-07-04T03:52:36;26.98;;;15.60;;
69203;SDS011;56317;27.658;85.326;2022-07-04T03:55:04;23.27;;;16.88;;
69203;SDS011;56317;27.658;85.326;2022-07-04T04:00:35;26.83;;;15.82;;
69203;SDS011;56317;27.658;85.326;2022-07-04T04:03:02;25.05;;;16.52;;
69203;SDS011;56317;27.658;85.326;2022-07-04T04:05:49;27.02;;;14.02;;
69203;SDS011;56317;27.658;85.326;2022-07-04T04:08:16;20.83;;;13.38;;
69203;SDS011;56317;27.658;85.326;2022-07-04T04:10:45;20.40;;;11.70;;
69203;SDS011;56317;27.658;85.326;2022-07-04T04:13:17;20.52;;;12.38;;
69203;SDS011;56317;27.658;85.326;2022-07-04T04:15:45;19.50;;;12.25;;
69203;SDS011;56317;27.658;85.326;2022-07-04T04:18:18;26.73;;;13.35;;
69203;SDS011;56317;27.658;85.326;2022-07-04T04:20:45;24.48;;;13.43;;
69203;SDS011;56317;27.658;85.326;2022-07-04T04:23:16;23.30;;;15.30;;
69203;SDS011;56317;27.658;85.326;2022-07-04T04:25:45;24.73;;;16.65;;
69203;SDS011;56317;27.658;85.326;2022-07-04T04:28:13;25.42;;;14.98;;
69203;SDS011;56317;27.658;85.326;2022-07-04T04:30:40;21.75;;;14.70;;
69203;SDS011;56317;27.658;85.326;2022-07-04T04:33:07;21.13;;;14.10;;
69203;SDS011;56317;27.658;85.326;2022-07-04T04:35:35;20.45;;;14.07;;
69203;SDS011;56317;27.658;85.326;2022-07-04T04:38:02;23.08;;;12.85;;
69203;SDS011;56317;27.658;85.326;2022-07-04T04:40:29;26.55;;;14.35;;
69203;SDS011;56317;27.658;85.326;2022-07-04T04:43:00;24.40;;;13.50;;
69203;SDS011;56317;27.658;85.326;2022-07-04T04:45:28;22.20;;;12.90;;
69203;SDS011;56317;27.658;85.326;2022-07-04T04:47:55;22.65;;;13.55;;
69203;SDS011;56317;27.658;85.326;2022-07-04T04:50:23;19.10;;;12.88;;
69203;SDS011;56317;27.658;85.326;2022-07-04T04:52:50;19.40;;;12.98;;
69203;SDS011;56317;27.658;85.326;2022-07-04T04:55:17;23.25;;;13.90;;
69203;SDS011;56317;27.658;85.326;2022-07-04T04:57:45;22.05;;;12.30;;
69203;SDS011;56317;27.658;85.326;2022-07-04T05:00:12;23.13;;;12.13;;
69203;SDS011;56317;27.658;85.326;2022-07-04T05:02:40;23.60;;;12.15;;
69203;SDS011;56317;27.658;85.326;2022-07-04T05:05:13;18.58;;;11.65;;
69203;SDS011;56317;27.658;85.326;2022-07-04T05:07:40;22.25;;;12.32;;
69203;SDS011;56317;27.658;85.326;2022-07-04T05:10:07;20.17;;;12.10;;
69203;SDS011;56317;27.658;85.326;2022-07-04T05:12:44;17.70;;;10.88;;
69203;SDS011;56317;27.658;85.326;2022-07-04T05:15:11;16.45;;;11.40;;
69203;SDS011;56317;27.658;85.326;2022-07-04T05:17:39;21.40;;;12.98;;
69203;SDS011;56317;27.658;85.326;2022-07-04T05:20:07;20.30;;;12.48;;
69203;SDS011;56317;27.658;85.326;2022-07-04T05:22:34;25.58;;;15.65;;
69203;SDS011;56317;27.658;85.326;2022-07-04T05:25:02;23.05;;;15.10;;
69203;SDS011;56317;27.658;85.326;2022-07-04T05:27:29;28.95;;;14.25;;
69203;SDS011;56317;27.658;85.326;2022-07-04T05:29:59;22.65;;;13.75;;
69203;SDS011;56317;27.658;85.326;2022-07-04T05:32:27;24.20;;;14.30;;
69203;SDS011;56317;27.658;85.326;2022-07-04T05:34:54;22.02;;;13.55;;
69203;SDS011;56317;27.658;85.326;2022-07-04T05:37:21;22.50;;;13.88;;
69203;SDS011;56317;27.658;85.326;2022-07-04T05:39:49;27.40;;;15.55;;
69203;SDS011;56317;27.658;85.326;2022-07-04T05:42:17;29.10;;;15.40;;
69203;SDS011;56317;27.658;85.326;2022-07-04T05:44:44;26.30;;;15.07;;
69203;SDS011;56317;27.658;85.326;2022-07-04T05:47:11;23.70;;;15.10;;
69203;SDS011;56317;27.658;85.326;2022-07-04T05:49:38;20.25;;;13.02;;
69203;SDS011;56317;27.658;85.326;2022-07-04T05:52:06;24.50;;;12.15;;
69203;SDS011;56317;27.658;85.326;2022-07-04T05:54:33;19.05;;;12.70;;
69203;SDS011;56317;27.658;85.326;2022-07-04T05:57:00;22.70;;;11.70;;
69203;SDS011;56317;27.658;85.326;2022-07-04T05:59:31;20.73;;;11.25;;
69203;SDS011;56317;27.658;85.326;2022-07-04T06:02:01;19.58;;;11.30;;
69203;SDS011;56317;27.658;85.326;2022-07-04T06:04:29;17.80;;;11.57;;
69203;SDS011;56317;27.658;85.326;2022-07-04T06:06:56;20.08;;;10.88;;
69203;SDS011;56317;27.658;85.326;2022-07-04T06:09:24;15.32;;;10.73;;
69203;SDS011;56317;27.658;85.326;2022-07-04T06:11:51;21.25;;;11.63;;
69203;SDS011;56317;27.658;85.326;2022-07-04T06:14:18;22.27;;;11.70;;
69203;SDS011;56317;27.658;85.326;2022-07-04T06:16:46;15.65;;;9.85;;
69203;SDS011;56317;27.658;85.326;2022-07-04T06:19:13;25.02;;;9.30;;
69203;SDS011;56317;27.658;85.326;2022-07-04T06:21:40;17.48;;;9.07;;
69203;SDS011;56317;27.658;85.326;2022-07-04T06:24:07;13.98;;;7.97;;
69203;SDS011;56317;27.658;85.326;2022-07-04T06:26:35;17.50;;;9.15;;
69203;SDS011;56317;27.658;85.326;2022-07-04T06:29:05;14.00;;;8.73;;
69203;SDS011;56317;27.658;85.326;2022-07-04T06:31:32;20.73;;;9.07;;
69203;SDS011;56317;27.658;85.326;2022-07-04T06:34:00;14.68;;;10.00;;
69203;SDS011;56317;27.658;85.326;2022-07-04T06:36:45;18.73;;;11.52;;
